Time;durP1;ratioP1;P1;durP2;ratioP2;P2;SDS_P1;SDS_P2;PMS_P1;PMS_P2;Temp;Humidity;BMP_temperature;BMP_pressure;BME280_temperature;BME280_humidity;BME280_pressure;Samples;Min_cycle;Max_cycle;Signal;HPM_P1;HPM_P2
2023/11/15 00:01:04;;;;;;;22.30;3.83;;;;;;;14.69;79.50;101077.13;4918908;29;20055;-61
2023/11/15 00:03:31;;;;;;;23.85;4.05;;;;;;;14.09;79.27;101079.19;4934335;29;20051;-62
2023/11/15 00:05:58;;;;;;;20.70;4.00;;;;;;;13.97;80.23;101092.88;4936511;29;20496;-62
2023/11/15 00:08:26;;;;;;;27.00;3.58;;;;;;;14.16;80.28;101087.81;4936895;29;20059;-63
2023/11/15 00:10:54;;;;;;;22.15;3.15;;;;;;;13.58;80.53;101099.41;4938152;29;20052;-62
2023/11/15 00:13:21;;;;;;;22.67;3.72;;;;;;;14.17;81.12;101090.28;4968694;28;20519;-63
2023/11/15 00:15:48;;;;;;;31.85;4.53;;;;;;;13.79;79.13;101096.81;4968388;28;20068;-62
2023/11/15 00:18:15;;;;;;;25.35;3.97;;;;;;;14.17;81.24;101103.31;4937755;29;20514;-62
2023/11/15 00:20:43;;;;;;;22.55;3.47;;;;;;;14.13;79.95;101107.88;4937914;29;20490;-62
2023/11/15 00:23:11;;;;;;;25.25;3.83;;;;;;;14.11;81.23;101099.06;4941501;29;20078;-64
2023/11/15 00:25:39;;;;;;;25.23;4.00;;;;;;;14.26;80.51;101110.47;4968099;28;20804;-62
2023/11/15 00:28:06;;;;;;;22.42;3.63;;;;;;;14.59;79.70;101111.56;4937390;29;20063;-62
2023/11/15 00:30:33;;;;;;;23.58;3.72;;;;;;;13.90;79.95;101115.53;4966906;28;20067;-62
2023/11/15 00:33:00;;;;;;;19.10;4.22;;;;;;;14.38;80.97;101118.16;4935753;29;20047;-63
2023/11/15 00:35:28;;;;;;;17.60;3.65;;;;;;;13.85;82.01;101120.41;4950959;29;20062;-64
2023/11/15 00:37:56;;;;;;;19.40;3.88;;;;;;;14.25;81.85;101121.88;4961139;28;20051;-63
2023/11/15 00:40:23;;;;;;;23.30;4.13;;;;;;;14.16;80.52;101124.66;4970436;28;20102;-64
2023/11/15 00:42:50;;;;;;;20.95;3.55;;;;;;;14.30;81.44;101130.88;4951857;28;20062;-63
2023/11/15 00:45:18;;;;;;;23.73;3.90;;;;;;;14.10;81.06;101130.69;4965520;28;20059;-63
2023/11/15 00:47:45;;;;;;;17.63;3.60;;;;;;;13.86;80.33;101127.59;4942819;29;20047;-62
2023/11/15 00:50:13;;;;;;;21.95;3.78;;;;;;;13.88;83.03;101137.19;4955695;29;20704;-62
2023/11/15 00:52:40;;;;;;;18.00;3.22;;;;;;;14.15;81.76;101142.44;4962415;28;20052;-63
2023/11/15 00:55:07;;;;;;;16.88;3.03;;;;;;;13.37;81.70;101153.75;4946785;29;20051;-63
2023/11/15 00:57:35;;;;;;;28.33;3.72;;;;;;;13.75;83.09;101154.78;4954427;29;20054;-64
2023/11/15 01:00:07;;;;;;;21.17;4.00;;;;;;;13.77;83.00;101146.16;4943336;29;20495;-62
2023/11/15 01:02:45;;;;;;;15.82;3.28;;;;;;;13.94;82.03;101155.31;4966766;28;20530;-62
2023/11/15 01:05:13;;;;;;;15.93;3.15;;;;;;;14.26;82.04;101154.81;4980260;28;20051;-62
2023/11/15 01:07:40;;;;;;;18.52;2.95;;;;;;;14.45;80.98;101146.97;4939015;29;20054;-63
2023/11/15 01:10:09;;;;;;;18.83;2.97;;;;;;;14.44;79.99;101150.06;4955852;29;20054;-63
2023/11/15 01:12:37;;;;;;;17.58;3.10;;;;;;;14.40;80.05;101161.00;4956143;29;20062;-63
2023/11/15 01:15:06;;;;;;;28.73;4.45;;;;;;;14.22;78.62;101159.38;4936839;28;20056;-62
2023/11/15 01:17:36;;;;;;;20.45;3.00;;;;;;;14.13;79.92;101171.59;4967189;28;20079;-62
2023/11/15 01:20:05;;;;;;;18.70;3.25;;;;;;;14.13;82.19;101189.03;4936879;29;20056;-64
2023/11/15 01:22:32;;;;;;;19.33;3.45;;;;;;;14.42;81.03;101180.06;4935055;29;20052;-63
2023/11/15 01:25:00;;;;;;;15.05;2.80;;;;;;;14.53;80.59;101179.44;4950915;28;20051;-63
2023/11/15 01:27:27;;;;;;;20.48;3.78;;;;;;;14.58;79.69;101181.19;4937413;28;20056;-63
2023/11/15 01:29:54;;;;;;;22.00;3.17;;;;;;;14.35;79.04;101186.13;4935328;29;20052;-62
2023/11/15 01:32:22;;;;;;;24.15;3.75;;;;;;;14.37;80.42;101183.84;4950937;29;20051;-63
2023/11/15 01:34:52;;;;;;;20.40;3.72;;;;;;;14.30;79.93;101182.69;4965368;28;20155;-63
2023/11/15 01:37:19;;;;;;;19.30;3.30;;;;;;;14.15;82.34;101183.16;4950989;29;20744;-64
2023/11/15 01:39:47;;;;;;;18.85;3.60;;;;;;;13.89;81.33;101191.47;4951496;28;20082;-62
2023/11/15 01:42:14;;;;;;;18.23;2.85;;;;;;;13.10;81.57;101190.75;4936019;29;20058;-64
2023/11/15 01:44:41;;;;;;;22.88;3.60;;;;;;;13.57;84.79;101189.09;4966728;28;20534;-63
2023/11/15 01:47:09;;;;;;;23.08;3.97;;;;;;;13.65;83.73;101190.28;4936266;29;20043;-66
2023/11/15 01:49:36;;;;;;;21.00;3.20;;;;;;;14.13;83.44;101193.75;4936224;29;20060;-66
2023/11/15 01:52:04;;;;;;;14.48;2.53;;;;;;;13.88;82.61;101197.34;4935759;29;20051;-67
2023/11/15 01:54:31;;;;;;;15.48;2.92;;;;;;;14.26;82.80;101192.81;4941241;29;20054;-66
2023/11/15 01:56:59;;;;;;;19.80;2.92;;;;;;;13.92;80.74;101199.13;4968999;28;20051;-67
2023/11/15 01:59:26;;;;;;;21.38;3.15;;;;;;;14.07;84.00;101195.84;4947978;29;20043;-66
2023/11/15 02:01:53;;;;;;;15.15;2.72;;;;;;;14.01;82.27;101207.44;4951262;28;20051;-66
2023/11/15 02:04:21;;;;;;;17.85;3.35;;;;;;;13.55;83.49;101210.75;4966305;28;20075;-65
2023/11/15 02:06:48;;;;;;;17.35;3.53;;;;;;;13.62;82.95;101208.34;4950425;29;20056;-67
2023/11/15 02:09:15;;;;;;;27.70;4.45;;;;;;;13.99;83.10;101215.25;4966131;28;20064;-66
2023/11/15 02:11:43;;;;;;;24.17;3.88;;;;;;;14.42;81.78;101202.25;4950421;29;20052;-66
2023/11/15 02:14:11;;;;;;;24.98;3.50;;;;;;;14.61;80.93;101217.41;4935215;29;20062;-66
2023/11/15 02:16:38;;;;;;;24.52;3.67;;;;;;;14.55;79.70;101206.81;4935910;29;20067;-66
2023/11/15 02:19:07;;;;;;;25.67;3.40;;;;;;;14.27;79.36;101220.19;4950478;29;20066;-67
2023/11/15 02:21:35;;;;;;;21.33;3.45;;;;;;;13.56;81.31;101218.72;4935978;29;20071;-66
2023/11/15 02:24:02;;;;;;;17.25;3.20;;;;;;;13.86;83.16;101230.06;4950429;29;20052;-66
2023/11/15 02:26:30;;;;;;;23.52;3.38;;;;;;;13.54;82.87;101232.09;4936325;29;20067;-66
2023/11/15 02:28:57;;;;;;;23.73;3.13;;;;;;;14.35;82.69;101237.94;4950547;29;20059;-66
2023/11/15 02:31:24;;;;;;;20.33;3.10;;;;;;;14.15;81.69;101244.13;4950572;29;20077;-65
2023/11/15 02:33:51;;;;;;;17.45;2.70;;;;;;;14.25;81.14;101235.47;4936173;29;20495;-66
2023/11/15 02:36:19;;;;;;;19.92;3.75;;;;;;;13.80;81.39;101243.25;4934903;29;20051;-62
2023/11/15 02:38:46;;;;;;;26.95;4.22;;;;;;;13.85;83.71;101245.03;4935497;29;20056;-63
2023/11/15 02:41:13;;;;;;;20.45;2.60;;;;;;;13.92;83.61;101237.88;4950306;28;20051;-62
2023/11/15 02:43:41;;;;;;;18.55;2.97;;;;;;;14.08;81.69;101241.00;4935659;29;20059;-63
2023/11/15 02:46:09;;;;;;;20.33;3.20;;;;;;;14.03;82.03;101244.75;4934216;29;20050;-62
2023/11/15 02:48:36;;;;;;;16.65;3.22;;;;;;;14.45;81.66;101249.53;4949812;29;20062;-63
2023/11/15 02:51:04;;;;;;;22.90;3.35;;;;;;;14.32;80.67;101255.25;4933596;29;20056;-67
2023/11/15 02:53:32;;;;;;;23.08;3.83;;;;;;;14.16;80.73;101256.81;4935500;29;20066;-67
2023/11/15 02:55:59;;;;;;;20.73;3.00;;;;;;;14.17;81.18;101259.28;4941581;29;20052;-66
2023/11/15 02:58:26;;;;;;;25.90;3.72;;;;;;;14.01;80.13;101262.81;4935473;29;20056;-66
2023/11/15 03:00:54;;;;;;;21.80;4.10;;;;;;;14.18;81.71;101260.91;4965665;28;20518;-66
2023/11/15 03:03:21;;;;;;;20.08;3.00;;;;;;;14.21;80.79;101259.44;4917830;29;20056;-66
2023/11/15 03:05:48;;;;;;;19.92;3.22;;;;;;;14.44;80.88;101263.72;4950193;29;20082;-66
2023/11/15 03:08:18;;;;;;;21.45;3.67;;;;;;;14.21;81.37;101256.69;4966656;28;20060;-66
2023/11/15 03:10:46;;;;;;;18.65;3.45;;;;;;;14.15;80.45;101261.56;4937603;29;20519;-66
2023/11/15 03:13:13;;;;;;;17.70;2.90;;;;;;;13.81;80.25;101258.69;4947800;29;20052;-65
2023/11/15 03:15:40;;;;;;;14.63;2.90;;;;;;;14.15;81.52;101253.25;4939152;29;20063;-67
2023/11/15 03:18:09;;;;;;;20.63;2.63;;;;;;;14.26;81.67;101251.81;4939205;29;20048;-67
2023/11/15 03:20:37;;;;;;;17.63;3.13;;;;;;;14.05;80.84;101259.06;4939155;29;20063;-66
2023/11/15 03:23:04;;;;;;;18.40;3.45;;;;;;;14.34;81.24;101259.31;4937408;29;20055;-66
2023/11/15 03:25:32;;;;;;;17.15;3.60;;;;;;;14.09;81.71;101257.31;4953966;29;20051;-62
2023/11/15 03:28:00;;;;;;;18.90;3.20;;;;;;;14.11;80.45;101263.34;4969926;28;20058;-63
2023/11/15 03:30:27;;;;;;;20.67;2.70;;;;;;;14.25;79.92;101265.97;4968929;28;20403;-67
2023/11/15 03:32:55;;;;;;;16.80;2.30;;;;;;;14.31;80.80;101271.03;4953250;28;20047;-65
2023/11/15 03:35:22;;;;;;;16.33;2.78;;;;;;;14.47;81.14;101271.41;4969618;28;20047;-66
2023/11/15 03:37:51;;;;;;;16.40;3.13;;;;;;;14.12;78.62;101269.69;4937580;29;20055;-63
2023/11/15 03:40:21;;;;;;;18.58;3.80;;;;;;;14.37;80.76;101266.16;4936811;29;20063;-63
2023/11/15 03:42:50;;;;;;;15.05;3.03;;;;;;;14.36;80.62;101279.22;4937433;29;20566;-63
2023/11/15 03:45:17;;;;;;;15.38;2.15;;;;;;;13.90;78.63;101287.25;4969224;28;20078;-62
2023/11/15 03:47:45;;;;;;;17.33;3.53;;;;;;;13.77;82.18;101290.97;4953201;29;20055;-67
2023/11/15 03:50:12;;;;;;;19.52;2.83;;;;;;;13.81;84.18;101291.13;4938237;29;20582;-66
2023/11/15 03:52:39;;;;;;;22.15;3.20;;;;;;;13.34;81.82;101296.28;4935838;29;20518;-65
2023/11/15 03:55:07;;;;;;;13.35;2.63;;;;;;;13.40;84.51;101296.97;4948111;29;20063;-66
2023/11/15 03:57:35;;;;;;;20.70;3.58;;;;;;;13.47;84.58;101300.94;4988461;28;20059;-65
2023/11/15 04:00:06;;;;;;;13.52;2.75;;;;;;;13.90;84.09;101301.09;4946117;29;20051;-65
2023/11/15 04:02:39;;;;;;;19.02;2.45;;;;;;;13.81;84.50;101308.53;4968162;28;20067;-65
2023/11/15 04:05:09;;;;;;;20.20;3.55;;;;;;;14.03;83.13;101305.69;4967814;28;20059;-66
2023/11/15 04:07:37;;;;;;;14.43;2.20;;;;;;;14.26;82.08;101303.66;4968802;28;20059;-66
2023/11/15 04:10:06;;;;;;;14.90;2.22;;;;;;;14.53;80.97;101306.94;4938397;29;20067;-65
2023/11/15 04:12:33;;;;;;;21.23;2.55;;;;;;;14.70;79.71;101302.56;4952455;29;20051;-65
2023/11/15 04:15:03;;;;;;;18.02;2.50;;;;;;;14.70;78.93;101299.78;4937750;29;20059;-66
2023/11/15 04:17:30;;;;;;;18.55;2.42;;;;;;;14.40;80.10;101296.00;4952947;28;20070;-66
2023/11/15 04:19:58;;;;;;;19.77;3.25;;;;;;;14.54;80.38;101294.69;4935606;29;20060;-66
2023/11/15 04:22:26;;;;;;;15.82;2.85;;;;;;;14.46;78.63;101297.47;4936364;29;20059;-66
2023/11/15 04:24:53;;;;;;;15.27;3.15;;;;;;;14.47;80.86;101299.91;4938092;29;20056;-66
2023/11/15 04:27:21;;;;;;;13.93;2.28;;;;;;;14.47;80.22;101299.91;4952585;29;20054;-67
2023/11/15 04:29:53;;;;;;;19.90;3.08;;;;;;;14.56;80.33;101305.47;4937885;29;20056;-67
2023/11/15 04:32:21;;;;;;;19.13;3.17;;;;;;;14.03;79.48;101307.66;4967461;28;20051;-66
2023/11/15 04:34:48;;;;;;;13.63;2.35;;;;;;;14.33;81.75;101309.53;4936628;29;20055;-66
2023/11/15 04:37:18;;;;;;;11.73;2.50;;;;;;;13.89;79.10;101310.53;4937386;29;20788;-66
2023/11/15 04:39:47;;;;;;;17.33;2.70;;;;;;;13.73;82.18;101322.38;4936737;29;20052;-66
2023/11/15 04:42:14;;;;;;;14.48;2.75;;;;;;;13.96;82.21;101321.16;4951985;28;20048;-66
2023/11/15 04:44:42;;;;;;;18.25;3.53;;;;;;;14.33;81.79;101321.41;4950759;28;20047;-66
2023/11/15 04:47:09;;;;;;;20.13;2.65;;;;;;;14.18;81.27;101326.56;4936684;29;20067;-65
2023/11/15 04:49:37;;;;;;;17.85;2.60;;;;;;;14.12;81.34;101325.91;4934375;29;20078;-66
2023/11/15 04:52:04;;;;;;;17.10;3.08;;;;;;;13.95;82.29;101333.34;4930860;29;20062;-71
2023/11/15 04:54:32;;;;;;;18.35;2.88;;;;;;;13.64;82.96;101335.34;4936466;29;20047;-66
2023/11/15 04:56:59;;;;;;;19.40;2.53;;;;;;;13.51;85.10;101337.09;4936338;29;20059;-63
2023/11/15 04:59:26;;;;;;;17.80;3.67;;;;;;;13.96;84.21;101341.38;4935934;29;20055;-66
2023/11/15 05:01:58;;;;;;;14.00;2.97;;;;;;;13.94;82.49;101340.88;4951127;29;20757;-66
2023/11/15 05:04:25;;;;;;;14.10;2.67;;;;;;;13.97;83.38;101340.22;4967571;28;20511;-65
2023/11/15 05:06:54;;;;;;;12.60;2.33;;;;;;;14.06;83.16;101345.78;4936596;29;20051;-66
2023/11/15 05:09:23;;;;;;;15.45;2.55;;;;;;;14.04;84.15;101351.63;4936874;29;20059;-66
2023/11/15 05:11:53;;;;;;;22.40;3.00;;;;;;;14.16;81.38;101351.84;4951576;29;20051;-66
2023/11/15 05:14:22;;;;;;;20.55;3.30;;;;;;;14.20;81.34;101352.00;4950869;29;20055;-66
2023/11/15 05:16:49;;;;;;;15.25;2.50;;;;;;;13.90;81.03;101361.19;4935877;29;20063;-66
2023/11/15 05:19:16;;;;;;;18.67;3.28;;;;;;;14.20;82.92;101349.25;4936082;29;20511;-66
2023/11/15 05:21:44;;;;;;;14.60;2.88;;;;;;;14.18;82.02;101355.09;4935460;29;20075;-66
2023/11/15 05:24:12;;;;;;;23.20;3.58;;;;;;;14.29;82.50;101355.66;4967764;28;20059;-62
2023/11/15 05:26:39;;;;;;;18.60;2.90;;;;;;;13.97;80.83;101358.78;4936528;29;20055;-62
2023/11/15 05:29:06;;;;;;;20.83;2.80;;;;;;;14.06;80.03;101356.84;4951071;29;20052;-62
2023/11/15 05:31:33;;;;;;;12.30;2.50;;;;;;;13.74;81.43;101365.53;4967655;28;20554;-64
2023/11/15 05:34:01;;;;;;;17.52;3.03;;;;;;;13.83;84.26;101377.44;4936785;29;20055;-64
2023/11/15 05:36:28;;;;;;;12.63;2.60;;;;;;;13.54;81.69;101367.72;4936185;29;20070;-63
2023/11/15 05:38:55;;;;;;;16.83;2.83;;;;;;;13.75;84.81;101384.59;4935071;29;20071;-66
2023/11/15 05:41:23;;;;;;;14.35;2.85;;;;;;;14.09;83.53;101378.38;4936761;29;20531;-65
2023/11/15 05:43:54;;;;;;;16.95;2.80;;;;;;;13.98;81.90;101374.28;4951604;29;20055;-67
2023/11/15 05:46:21;;;;;;;22.15;3.22;;;;;;;13.94;81.17;101376.03;4943036;29;20047;-63
2023/11/15 05:48:49;;;;;;;18.08;3.80;;;;;;;13.92;81.70;101367.22;4950932;28;20048;-63
2023/11/15 05:51:16;;;;;;;18.75;2.60;;;;;;;13.56;81.33;101368.19;4936351;29;20056;-63
2023/11/15 05:53:44;;;;;;;21.05;2.75;;;;;;;13.50;84.27;101372.25;4950752;29;20071;-63
2023/11/15 05:56:12;;;;;;;11.93;2.20;;;;;;;13.92;83.82;101379.13;4944002;29;20059;-63
2023/11/15 05:58:43;;;;;;;17.85;3.10;;;;;;;13.92;83.36;101381.06;4935927;29;21126;-63
2023/11/15 06:01:11;;;;;;;19.77;3.10;;;;;;;13.70;83.71;101373.66;4936167;29;20066;-62
2023/11/15 06:03:38;;;;;;;21.67;3.20;;;;;;;13.86;83.11;101380.41;4935481;29;20147;-63
2023/11/15 06:06:06;;;;;;;19.05;3.45;;;;;;;13.89;83.34;101381.72;4936217;29;20055;-63
2023/11/15 06:08:33;;;;;;;19.50;3.53;;;;;;;13.91;80.63;101383.06;4936114;29;20060;-62
2023/11/15 06:11:00;;;;;;;20.98;3.38;;;;;;;13.94;83.44;101395.44;4943223;29;20063;-64
2023/11/15 06:13:27;;;;;;;16.88;3.33;;;;;;;13.93;82.28;101394.59;4928130;29;20056;-63
2023/11/15 06:15:54;;;;;;;17.38;3.50;;;;;;;14.03;83.04;101401.81;4935864;29;20060;-63
2023/11/15 06:18:22;;;;;;;18.90;3.15;;;;;;;14.25;82.17;101415.59;4965939;28;20068;-64
2023/11/15 06:20:49;;;;;;;18.15;2.80;;;;;;;14.26;82.29;101417.28;4934762;29;20050;-63
2023/11/15 06:23:17;;;;;;;14.98;2.58;;;;;;;14.32;82.34;101415.97;4935938;29;20048;-63
2023/11/15 06:25:44;;;;;;;19.67;2.88;;;;;;;14.15;81.48;101413.94;4966629;28;20083;-66
2023/11/15 06:28:12;;;;;;;16.52;2.80;;;;;;;13.67;80.61;101415.81;4935900;29;20380;-69
2023/11/15 06:30:39;;;;;;;16.55;3.83;;;;;;;13.84;81.57;101412.31;4933958;29;20047;-67
2023/11/15 06:33:09;;;;;;;22.20;3.95;;;;;;;13.78;83.83;101419.94;4966708;28;20070;-67
2023/11/15 06:35:44;;;;;;;17.45;2.53;;;;;;;13.17;82.92;101422.63;4966483;28;20528;-67
2023/11/15 06:38:18;;;;;;;22.15;3.40;;;;;;;13.75;84.94;101423.38;4966145;28;20043;-67
2023/11/15 06:41:00;;;;;;;20.70;3.45;;;;;;;13.96;83.10;101418.09;4934605;29;20052;-66
2023/11/15 06:43:28;;;;;;;19.02;2.90;;;;;;;14.09;82.63;101426.28;4937177;29;20063;-66
2023/11/15 06:45:55;;;;;;;20.92;3.95;;;;;;;13.91;80.32;101426.53;4949463;28;20052;-67
2023/11/15 06:48:23;;;;;;;13.65;2.53;;;;;;;13.73;84.37;101424.81;4939287;29;20059;-62
2023/11/15 06:50:51;;;;;;;23.90;3.95;;;;;;;13.74;83.25;101427.25;4936821;29;20058;-63
2023/11/15 06:53:19;;;;;;;17.02;3.33;;;;;;;13.62;83.65;101420.66;4939079;29;20056;-63
2023/11/15 06:55:46;;;;;;;20.98;4.22;;;;;;;13.89;81.97;101415.78;4939337;29;20063;-64
2023/11/15 06:58:16;;;;;;;17.05;3.13;;;;;;;13.50;83.68;101432.31;4939439;29;20059;-62
2023/11/15 07:00:44;;;;;;;18.65;3.60;;;;;;;13.84;84.26;101431.72;4938383;29;20040;-62
2023/11/15 07:03:12;;;;;;;17.52;3.10;;;;;;;13.78;84.74;101438.50;4939707;29;20052;-64
2023/11/15 07:05:41;;;;;;;23.55;3.33;;;;;;;13.92;82.50;101445.59;4954836;28;20051;-63
2023/11/15 07:08:13;;;;;;;19.52;3.25;;;;;;;13.81;82.11;101443.44;4938738;29;20388;-62
2023/11/15 07:10:55;;;;;;;15.57;3.05;;;;;;;13.94;82.38;101442.50;4924170;29;20044;-62
2023/11/15 07:13:23;;;;;;;23.35;4.18;;;;;;;13.82;82.37;101450.59;4937987;29;20063;-62
2023/11/15 07:15:50;;;;;;;19.08;3.22;;;;;;;13.71;81.56;101446.44;4936746;29;20064;-62
2023/11/15 07:18:17;;;;;;;25.52;3.17;;;;;;;13.40;84.28;101454.72;4938377;29;20064;-63
2023/11/15 07:20:46;;;;;;;13.93;2.63;;;;;;;13.78;83.50;101460.66;4938912;29;20056;-62
2023/11/15 07:23:15;;;;;;;17.73;3.30;;;;;;;14.06;82.94;101456.59;4937202;29;20040;-63
2023/11/15 07:25:42;;;;;;;20.77;3.97;;;;;;;13.87;83.02;101467.06;4921285;29;20055;-62
2023/11/15 07:28:12;;;;;;;21.98;3.10;;;;;;;13.97;82.71;101475.09;4936730;29;20526;-63
2023/11/15 07:30:39;;;;;;;23.40;3.53;;;;;;;14.19;82.58;101473.09;4937459;29;20396;-65
2023/11/15 07:33:06;;;;;;;21.08;3.72;;;;;;;14.06;80.73;101487.06;4951889;29;20492;-64
2023/11/15 07:35:36;;;;;;;27.98;3.67;;;;;;;14.11;81.35;101487.75;4938003;29;20044;-63
2023/11/15 07:38:03;;;;;;;18.13;3.58;;;;;;;14.40;81.57;101495.56;4938088;29;20062;-64
2023/11/15 07:40:30;;;;;;;18.38;3.53;;;;;;;14.21;81.00;101492.19;4937263;29;20052;-64
2023/11/15 07:43:00;;;;;;;22.17;4.15;;;;;;;14.16;82.36;101508.94;4967844;28;20051;-62
2023/11/15 07:45:28;;;;;;;18.85;3.38;;;;;;;13.69;82.90;101510.44;4952479;28;20067;-63
2023/11/15 07:47:56;;;;;;;31.15;4.50;;;;;;;13.64;84.02;101520.81;4968097;28;20056;-63
2023/11/15 07:50:23;;;;;;;20.20;3.78;;;;;;;13.85;83.47;101514.47;4937940;28;20048;-62
2023/11/15 07:52:52;;;;;;;19.50;3.30;;;;;;;14.07;83.20;101514.44;4934019;29;20071;-63
2023/11/15 07:55:19;;;;;;;18.23;2.97;;;;;;;14.21;82.03;101514.38;4936363;29;20547;-64
2023/11/15 07:57:49;;;;;;;;;;;;;;;14.19;81.48;101517.44;4936386;29;20055;-61
2023/11/15 08:00:22;;;;;;;25.83;3.42;;;;;;;13.89;80.68;101523.78;4962668;28;19934;-63
2023/11/15 08:02:54;;;;;;;21.08;3.28;;;;;;;14.34;82.54;101535.66;4951827;28;20060;-65
2023/11/15 08:05:22;;;;;;;20.10;3.35;;;;;;;14.51;81.35;101528.22;4938939;29;20067;-65
2023/11/15 08:07:51;;;;;;;20.25;3.55;;;;;;;14.37;82.13;101526.69;4951072;28;20054;-64
2023/11/15 08:10:18;;;;;;;17.42;3.63;;;;;;;14.23;83.08;101528.69;4938731;29;20048;-62
2023/11/15 08:12:49;;;;;;;19.67;3.80;;;;;;;14.19;84.08;101533.25;4950057;28;20043;-61
2023/11/15 08:15:22;;;;;;;17.33;3.88;;;;;;;14.08;81.57;101531.88;4937001;29;20068;-63
2023/11/15 08:17:49;;;;;;;23.98;5.07;;;;;;;14.60;79.51;101529.09;4933578;29;20059;-62
2023/11/15 08:20:18;;;;;;;22.42;5.47;;;;;;;14.98;77.17;101532.13;4936398;29;20044;-63
2023/11/15 08:22:45;;;;;;;18.95;4.35;;;;;;;14.97;76.54;101544.38;4938783;29;20047;-63
2023/11/15 08:25:13;;;;;;;21.25;4.65;;;;;;;14.91;77.96;101539.28;4966371;28;20063;-63
2023/11/15 08:27:41;;;;;;;19.00;3.90;;;;;;;14.97;77.68;101551.88;4936874;29;20043;-64
2023/11/15 08:30:16;;;;;;;18.95;3.58;;;;;;;14.41;77.63;101545.16;4941359;29;20047;-63
2023/11/15 08:32:45;;;;;;;18.15;3.33;;;;;;;14.31;80.04;101550.94;4933748;29;20062;-61
2023/11/15 08:35:15;;;;;;;20.33;3.28;;;;;;;14.72;78.95;101558.13;4963519;28;20070;-62
2023/11/15 08:37:42;;;;;;;20.20;3.78;;;;;;;14.95;77.52;101557.75;4948165;29;20047;-62
2023/11/15 08:40:13;;;;;;;20.42;4.32;;;;;;;14.59;77.87;101563.47;4939989;29;20746;-62
2023/11/15 08:42:55;;;;;;;17.27;3.00;;;;;;;14.63;78.86;101560.88;4939368;29;20062;-61
2023/11/15 08:45:22;;;;;;;18.65;3.45;;;;;;;13.57;80.09;101562.78;4941477;29;20057;-62
2023/11/15 08:47:50;;;;;;;22.10;3.03;;;;;;;13.71;82.58;101565.50;4970894;28;20292;-61
2023/11/15 08:50:18;;;;;;;19.30;3.97;;;;;;;13.85;82.08;101571.81;4950862;29;20051;-62
2023/11/15 08:52:46;;;;;;;17.00;3.45;;;;;;;14.34;81.29;101566.97;4935526;29;20063;-63
2023/11/15 08:55:14;;;;;;;17.35;3.47;;;;;;;14.79;78.72;101564.88;4948931;29;20561;-61
2023/11/15 08:57:42;;;;;;;20.98;3.00;;;;;;;14.29;78.46;101558.78;4942480;29;20052;-62
2023/11/15 09:00:15;;;;;;;21.15;3.78;;;;;;;13.86;79.07;101559.59;4936838;28;20059;-61
2023/11/15 09:02:47;;;;;;;19.35;3.72;;;;;;;13.94;81.35;101561.59;4971023;28;20059;-61
2023/11/15 09:05:16;;;;;;;24.23;3.42;;;;;;;14.18;80.87;101557.38;4945566;29;20062;-62
2023/11/15 09:07:43;;;;;;;19.83;3.60;;;;;;;13.96;79.89;101562.94;4953748;28;20043;-63
2023/11/15 09:10:13;;;;;;;24.63;3.80;;;;;;;14.05;81.66;101563.00;4932661;29;20052;-61
2023/11/15 09:12:41;;;;;;;14.52;2.95;;;;;;;14.36;79.36;101550.84;4963803;28;20562;-61
2023/11/15 09:15:11;;;;;;;16.65;3.38;;;;;;;14.07;78.83;101553.22;4938840;29;20697;-61
2023/11/15 09:17:45;;;;;;;14.35;2.80;;;;;;;14.56;79.78;101550.25;4937524;29;20058;-61
2023/11/15 09:20:19;;;;;;;16.63;3.65;;;;;;;14.46;75.89;101552.50;4951113;28;20055;-62
2023/11/15 09:22:53;;;;;;;18.42;2.97;;;;;;;13.93;80.11;101557.22;4944305;29;20059;-61
2023/11/15 09:25:23;;;;;;;18.50;4.20;;;;;;;14.15;80.99;101555.25;4948403;29;20051;-62
2023/11/15 09:27:52;;;;;;;16.95;3.67;;;;;;;14.52;79.46;101551.22;4943505;29;20058;-61
2023/11/15 09:30:25;;;;;;;22.38;3.55;;;;;;;14.36;78.80;101552.78;4940162;29;20048;-61
2023/11/15 09:32:57;;;;;;;17.90;3.17;;;;;;;14.71;79.03;101554.56;4940047;29;20076;-61
2023/11/15 09:35:31;;;;;;;16.38;2.75;;;;;;;14.75;77.88;101555.53;4932798;29;20058;-61
2023/11/15 09:37:58;;;;;;;16.30;3.25;;;;;;;14.37;78.75;101543.31;4960875;28;20058;-63
2023/11/15 09:40:27;;;;;;;17.05;3.72;;;;;;;14.95;78.99;101541.09;4946677;29;20047;-62
2023/11/15 09:42:56;;;;;;;21.92;4.30;;;;;;;15.24;76.16;101535.75;4933287;29;20062;-65
2023/11/15 09:45:23;;;;;;;19.13;4.38;;;;;;;14.98;74.66;101536.84;4949646;28;20424;-64
2023/11/15 09:47:52;;;;;;;20.50;3.75;;;;;;;14.49;76.32;101529.66;4941796;29;20600;-63
2023/11/15 09:50:23;;;;;;;21.60;3.80;;;;;;;14.72;78.06;101533.19;4936258;29;20052;-62
2023/11/15 09:52:55;;;;;;;20.08;4.47;;;;;;;15.14;76.28;101538.84;4943156;29;20054;-61
2023/11/15 09:55:28;;;;;;;15.50;3.78;;;;;;;14.44;75.16;101536.19;4935471;29;20052;-64
2023/11/15 09:57:55;;;;;;;21.45;4.05;;;;;;;14.49;75.72;101546.31;4938873;29;20423;-61
2023/11/15 10:00:23;;;;;;;18.02;3.28;;;;;;;13.72;78.77;101554.09;4936104;29;20634;-59
2023/11/15 10:02:52;;;;;;;20.88;3.55;;;;;;;13.69;78.85;101562.22;4934849;29;20558;-62
2023/11/15 10:05:27;;;;;;;21.70;3.25;;;;;;;13.43;82.08;101554.53;4933834;29;20062;-61
2023/11/15 10:08:08;;;;;;;17.60;3.05;;;;;;;14.07;82.66;101555.19;4935378;29;20067;-61
2023/11/15 10:10:35;;;;;;;19.95;3.85;;;;;;;14.40;78.69;101542.69;4933758;29;20052;-61
2023/11/15 10:13:12;;;;;;;19.77;3.30;;;;;;;14.35;79.02;101546.41;4937029;29;20055;-60
2023/11/15 10:15:40;;;;;;;19.08;3.03;;;;;;;14.25;77.49;101546.66;4932740;29;20059;-61
2023/11/15 10:18:08;;;;;;;17.55;2.60;;;;;;;13.98;77.27;101559.84;4931092;29;20058;-61
2023/11/15 10:20:35;;;;;;;17.60;2.42;;;;;;;14.21;80.15;101553.16;4934952;29;20051;-61
2023/11/15 10:23:04;;;;;;;16.42;3.30;;;;;;;14.60;78.18;101545.72;4949403;29;20064;-61
2023/11/15 10:25:31;;;;;;;15.38;3.13;;;;;;;15.24;76.43;101554.34;4937729;29;20047;-60
2023/11/15 10:28:10;;;;;;;16.08;3.70;;;;;;;15.04;73.91;101555.00;4934296;29;20071;-61
2023/11/15 10:30:37;;;;;;;14.13;3.13;;;;;;;14.98;75.34;101557.09;4933946;29;20047;-62
2023/11/15 10:33:13;;;;;;;16.90;3.17;;;;;;;15.34;74.13;101554.88;4937345;29;20048;-59
2023/11/15 10:35:43;;;;;;;18.67;3.30;;;;;;;14.94;73.93;101564.41;4927028;29;20056;-63
2023/11/15 10:38:18;;;;;;;16.73;3.05;;;;;;;14.55;74.29;101556.97;4950200;29;20450;-60
2023/11/15 10:40:46;;;;;;;15.63;2.92;;;;;;;14.88;74.43;101559.34;4931100;29;20063;-60
2023/11/15 10:43:15;;;;;;;14.98;2.47;;;;;;;14.61;75.14;101557.59;4935223;29;20067;-59
2023/11/15 10:45:43;;;;;;;18.38;3.80;;;;;;;15.26;74.39;101560.41;4939070;29;20655;-61
2023/11/15 10:48:11;;;;;;;13.68;3.30;;;;;;;14.95;73.26;101560.53;4972026;28;20681;-58
2023/11/15 10:50:45;;;;;;;16.55;2.60;;;;;;;14.40;74.08;101551.81;4937275;29;20411;-58
2023/11/15 10:53:12;;;;;;;12.75;3.22;;;;;;;14.61;74.06;101554.84;4938519;29;20048;-58
2023/11/15 10:55:40;;;;;;;18.42;3.35;;;;;;;14.71;73.01;101562.06;4933745;29;20517;-59
2023/11/15 10:58:11;;;;;;;22.20;3.05;;;;;;;14.99;74.62;101557.91;4932817;29;20483;-57
2023/11/15 11:00:41;;;;;;;19.45;4.47;;;;;;;15.00;73.10;101565.09;4927312;29;20059;-58
2023/11/15 11:03:13;;;;;;;16.52;3.95;;;;;;;14.74;73.30;101555.88;4938840;29;20052;-61
2023/11/15 11:05:57;;;;;;;17.33;3.78;;;;;;;14.63;75.36;101555.34;4936997;29;20063;-61
2023/11/15 11:08:30;;;;;;;17.85;2.90;;;;;;;14.63;73.76;101558.09;4967005;28;20051;-61
2023/11/15 11:11:10;;;;;;;11.55;2.65;;;;;;;15.07;73.50;101557.94;4948792;28;20056;-60
2023/11/15 11:13:40;;;;;;;13.98;2.63;;;;;;;14.68;72.36;101550.47;4938011;29;20055;-61
2023/11/15 11:16:36;;;;;;;15.43;3.53;;;;;;;14.77;74.21;101542.19;4954197;28;20060;-60
2023/11/15 11:19:11;;;;;;;15.15;3.25;;;;;;;14.44;73.81;101540.91;4938075;29;20059;-61
2023/11/15 11:22:01;;;;;;;17.40;3.38;;;;;;;15.44;73.21;101542.66;4934245;29;20048;-61
2023/11/15 11:24:32;;;;;;;18.77;3.25;;;;;;;15.22;73.16;101540.81;4967538;28;20063;-61